Kayenta, AZ (86033)

9:33 AM MST on February 09, 2016 (GMT -0700)
Blanding | | Change Station
CLOSE
Current Station
Airport
Location: Blanding,
Elevation: 5863 ft
Nearby Weather Stations

Elev 5863 ft 37.58 °N, 109.48 °W | Updated 18 minutes ago

Clear
Clear
36 °F
Feels Like 36 °F
N
0
Wind Variable Wind from North

Today
High -- | Low -- °F
--% Chance of Precip.
Yesterday
High -- | Low -- °F
Precip. -- in
Pressure 30.54 in
Visibility 10.0 miles
Clouds Clear
Dew Point 20 °F
Humidity 50%
Rainfall 0.00 in
Snow Depth Not available.
7:16 AM 5:55 PM
New Moon, 2% visible
METAR KBDG 091615Z AUTO 00000KT 10SM CLR 03/M07 A3054 RMK AO1 T00251069
Pressure 30.54 in
Visibility 10.0 miles
Clouds Clear
Dew Point 20 °F
Humidity 50%
Rainfall 0.00 in
Snow Depth Not available.
7:16 AM 5:55 PM
New Moon, 2% visible
METAR KBDG 091615Z AUTO 00000KT 10SM CLR 03/M07 A3054 RMK AO1 T00251069

10-Day Weather Forecast

Almanac

Astronomy

Feb. 09, 2016 Rise Set
Actual Time
Civil Twilight
Nautical Twilight
Astronomical Twilight
Moon
Length of Visible Light
Length of Day
Tomorrow will be .
, % of the Moon is Illuminated

Today's Extremes

State Highs State Lows

Community

WunderPhotos

Upload Photos

1,891,630 photos uploaded!

WunderBlog® & News

Nearby

Air Quality

  Air Quality AQ Index Pollutant
Not available.

Snow Depth

Station Depth Elevation

Earthquake Activity

City Distance Mag. Time & Date
Minimum magnitude displayed is 2.5.

Coastal Water Temperatures

Place Temperature

Stations

Nearby Weather Stations

Station Location Temp. Windchill Dew Point Humidity Wind Precip. Elev Updated Type
                   

Watches & Warnings

There are currently no watches in effect.